sensor_id;sensor_type;location;lat;lon;timestamp;P1;durP1;ratioP1;P2;durP2;ratioP2
61696;SDS011;47610;52.252;20.922;2023-04-24T00:00:04;12.80;;;7.70;;
61696;SDS011;47610;52.252;20.922;2023-04-24T00:05:09;12.40;;;8.00;;
61696;SDS011;47610;52.252;20.922;2023-04-24T00:10:12;11.50;;;8.00;;
61696;SDS011;47610;52.252;20.922;2023-04-24T00:15:15;10.50;;;8.30;;
61696;SDS011;47610;52.252;20.922;2023-04-24T00:20:18;11.50;;;7.40;;
61696;SDS011;47610;52.252;20.922;2023-04-24T00:25:22;10.90;;;8.30;;
61696;SDS011;47610;52.252;20.922;2023-04-24T00:30:25;14.70;;;9.00;;
61696;SDS011;47610;52.252;20.922;2023-04-24T00:35:28;15.80;;;8.60;;
61696;SDS011;47610;52.252;20.922;2023-04-24T00:40:31;12.20;;;7.70;;
61696;SDS011;47610;52.252;20.922;2023-04-24T00:45:35;13.60;;;8.70;;
61696;SDS011;47610;52.252;20.922;2023-04-24T00:50:38;11.50;;;8.00;;
61696;SDS011;47610;52.252;20.922;2023-04-24T00:55:42;14.40;;;9.20;;
61696;SDS011;47610;52.252;20.922;2023-04-24T01:00:45;11.80;;;7.60;;
61696;SDS011;47610;52.252;20.922;2023-04-24T01:05:51;12.90;;;8.20;;
61696;SDS011;47610;52.252;20.922;2023-04-24T01:10:55;13.60;;;7.50;;
61696;SDS011;47610;52.252;20.922;2023-04-24T01:16:00;10.50;;;7.40;;
61696;SDS011;47610;52.252;20.922;2023-04-24T01:21:03;9.10;;;7.20;;
61696;SDS011;47610;52.252;20.922;2023-04-24T01:26:09;12.00;;;8.20;;
61696;SDS011;47610;52.252;20.922;2023-04-24T01:31:13;10.70;;;7.10;;
61696;SDS011;47610;52.252;20.922;2023-04-24T01:36:17;14.00;;;7.70;;
61696;SDS011;47610;52.252;20.922;2023-04-24T01:41:22;12.70;;;7.60;;
61696;SDS011;47610;52.252;20.922;2023-04-24T01:46:26;9.10;;;7.30;;
61696;SDS011;47610;52.252;20.922;2023-04-24T01:51:29;11.30;;;7.00;;
61696;SDS011;47610;52.252;20.922;2023-04-24T01:56:33;12.10;;;7.50;;
61696;SDS011;47610;52.252;20.922;2023-04-24T02:01:38;14.20;;;7.70;;
61696;SDS011;47610;52.252;20.922;2023-04-24T02:06:41;11.10;;;7.70;;
61696;SDS011;47610;52.252;20.922;2023-04-24T02:11:44;11.70;;;8.40;;
61696;SDS011;47610;52.252;20.922;2023-04-24T02:16:47;8.90;;;6.60;;
61696;SDS011;47610;52.252;20.922;2023-04-24T02:21:51;10.90;;;7.70;;
61696;SDS011;47610;52.252;20.922;2023-04-24T02:26:54;12.10;;;7.60;;
61696;SDS011;47610;52.252;20.922;2023-04-24T02:31:57;11.70;;;7.70;;
61696;SDS011;47610;52.252;20.922;2023-04-24T02:37:00;12.50;;;8.40;;
61696;SDS011;47610;52.252;20.922;2023-04-24T02:42:04;13.30;;;8.10;;
61696;SDS011;47610;52.252;20.922;2023-04-24T02:47:07;13.90;;;8.00;;
61696;SDS011;47610;52.252;20.922;2023-04-24T02:52:10;18.20;;;9.30;;
61696;SDS011;47610;52.252;20.922;2023-04-24T02:57:13;13.50;;;8.10;;
61696;SDS011;47610;52.252;20.922;2023-04-24T03:02:16;12.60;;;8.00;;
61696;SDS011;47610;52.252;20.922;2023-04-24T03:07:20;12.10;;;7.80;;
61696;SDS011;47610;52.252;20.922;2023-04-24T03:12:23;12.40;;;8.00;;
61696;SDS011;47610;52.252;20.922;2023-04-24T03:17:26;12.80;;;8.40;;
61696;SDS011;47610;52.252;20.922;2023-04-24T03:22:29;12.30;;;8.10;;
61696;SDS011;47610;52.252;20.922;2023-04-24T03:27:33;16.70;;;8.20;;
61696;SDS011;47610;52.252;20.922;2023-04-24T03:32:36;11.70;;;8.00;;
61696;SDS011;47610;52.252;20.922;2023-04-24T03:37:39;12.60;;;9.00;;
61696;SDS011;47610;52.252;20.922;2023-04-24T03:42:42;14.30;;;8.90;;
61696;SDS011;47610;52.252;20.922;2023-04-24T03:47:45;22.40;;;14.50;;
61696;SDS011;47610;52.252;20.922;2023-04-24T03:52:49;28.50;;;17.20;;
61696;SDS011;47610;52.252;20.922;2023-04-24T03:57:53;23.50;;;14.20;;
61696;SDS011;47610;52.252;20.922;2023-04-24T04:02:57;35.40;;;13.70;;
61696;SDS011;47610;52.252;20.922;2023-04-24T04:08:00;23.90;;;14.10;;
61696;SDS011;47610;52.252;20.922;2023-04-24T04:13:05;27.00;;;14.10;;
61696;SDS011;47610;52.252;20.922;2023-04-24T04:23:09;20.60;;;12.20;;
61696;SDS011;47610;52.252;20.922;2023-04-24T04:28:13;19.00;;;10.90;;
61696;SDS011;47610;52.252;20.922;2023-04-24T04:33:17;16.30;;;10.20;;
61696;SDS011;47610;52.252;20.922;2023-04-24T04:38:21;15.10;;;9.10;;
61696;SDS011;47610;52.252;20.922;2023-04-24T04:43:25;15.80;;;8.20;;
61696;SDS011;47610;52.252;20.922;2023-04-24T04:48:28;13.30;;;7.80;;
61696;SDS011;47610;52.252;20.922;2023-04-24T04:53:32;14.80;;;8.10;;
61696;SDS011;47610;52.252;20.922;2023-04-24T04:58:35;18.20;;;8.90;;
61696;SDS011;47610;52.252;20.922;2023-04-24T05:03:38;15.20;;;8.00;;
61696;SDS011;47610;52.252;20.922;2023-04-24T05:08:41;15.30;;;8.00;;
61696;SDS011;47610;52.252;20.922;2023-04-24T05:13:45;16.80;;;8.20;;
61696;SDS011;47610;52.252;20.922;2023-04-24T05:18:48;15.10;;;8.10;;
61696;SDS011;47610;52.252;20.922;2023-04-24T05:23:52;15.50;;;7.50;;
61696;SDS011;47610;52.252;20.922;2023-04-24T05:28:55;17.10;;;8.10;;
61696;SDS011;47610;52.252;20.922;2023-04-24T05:33:59;8.70;;;6.70;;
61696;SDS011;47610;52.252;20.922;2023-04-24T05:39:02;13.30;;;6.70;;
61696;SDS011;47610;52.252;20.922;2023-04-24T05:44:05;16.40;;;7.40;;
61696;SDS011;47610;52.252;20.922;2023-04-24T05:49:09;11.40;;;7.20;;
61696;SDS011;47610;52.252;20.922;2023-04-24T05:54:12;42.80;;;25.30;;
61696;SDS011;47610;52.252;20.922;2023-04-24T05:59:15;22.20;;;9.10;;
61696;SDS011;47610;52.252;20.922;2023-04-24T06:04:19;19.10;;;8.00;;
61696;SDS011;47610;52.252;20.922;2023-04-24T06:09:24;19.80;;;7.70;;
61696;SDS011;47610;52.252;20.922;2023-04-24T06:14:27;20.20;;;7.60;;
61696;SDS011;47610;52.252;20.922;2023-04-24T06:19:30;16.60;;;7.20;;
61696;SDS011;47610;52.252;20.922;2023-04-24T06:24:34;24.40;;;7.60;;
61696;SDS011;47610;52.252;20.922;2023-04-24T06:34:40;49.50;;;27.50;;
61696;SDS011;47610;52.252;20.922;2023-04-24T06:39:43;18.30;;;8.50;;
61696;SDS011;47610;52.252;20.922;2023-04-24T06:44:46;17.50;;;6.80;;
61696;SDS011;47610;52.252;20.922;2023-04-24T06:49:50;12.00;;;6.10;;
61696;SDS011;47610;52.252;20.922;2023-04-24T06:54:53;13.80;;;6.20;;
61696;SDS011;47610;52.252;20.922;2023-04-24T07:00:03;11.80;;;5.80;;
61696;SDS011;47610;52.252;20.922;2023-04-24T07:05:08;17.80;;;6.00;;
61696;SDS011;47610;52.252;20.922;2023-04-24T07:10:12;11.50;;;5.90;;
61696;SDS011;47610;52.252;20.922;2023-04-24T07:15:15;11.70;;;5.80;;
61696;SDS011;47610;52.252;20.922;2023-04-24T07:20:18;9.90;;;6.10;;
61696;SDS011;47610;52.252;20.922;2023-04-24T07:30:23;11.70;;;6.10;;
61696;SDS011;47610;52.252;20.922;2023-04-24T07:35:26;11.00;;;5.30;;
61696;SDS011;47610;52.252;20.922;2023-04-24T07:40:29;8.70;;;5.50;;
61696;SDS011;47610;52.252;20.922;2023-04-24T07:45:33;7.50;;;4.70;;
61696;SDS011;47610;52.252;20.922;2023-04-24T07:50:36;12.20;;;5.50;;
61696;SDS011;47610;52.252;20.922;2023-04-24T07:55:39;12.50;;;5.10;;
61696;SDS011;47610;52.252;20.922;2023-04-24T08:00:42;13.80;;;5.50;;
61696;SDS011;47610;52.252;20.922;2023-04-24T08:05:45;21.70;;;6.00;;
61696;SDS011;47610;52.252;20.922;2023-04-24T08:10:49;13.40;;;5.20;;
61696;SDS011;47610;52.252;20.922;2023-04-24T08:15:52;13.80;;;5.10;;
61696;SDS011;47610;52.252;20.922;2023-04-24T08:20:55;11.40;;;5.90;;
61696;SDS011;47610;52.252;20.922;2023-04-24T08:25:59;15.10;;;6.60;;
61696;SDS011;47610;52.252;20.922;2023-04-24T08:31:02;12.60;;;6.60;;
61696;SDS011;47610;52.252;20.922;2023-04-24T08:41:08;12.60;;;6.20;;
61696;SDS011;47610;52.252;20.922;2023-04-24T08:46:13;12.40;;;6.40;;
61696;SDS011;47610;52.252;20.922;2023-04-24T08:51:16;15.00;;;5.80;;
61696;SDS011;47610;52.252;20.922;2023-04-24T08:56:20;17.50;;;6.50;;
61696;SDS011;47610;52.252;20.922;2023-04-24T09:01:25;13.10;;;6.70;;
61696;SDS011;47610;52.252;20.922;2023-04-24T09:06:29;16.60;;;6.10;;
61696;SDS011;47610;52.252;20.922;2023-04-24T09:11:33;10.80;;;5.80;;
61696;SDS011;47610;52.252;20.922;2023-04-24T09:16:38;21.00;;;5.60;;
61696;SDS011;47610;52.252;20.922;2023-04-24T09:21:41;15.00;;;5.80;;
61696;SDS011;47610;52.252;20.922;2023-04-24T09:26:48;20.90;;;5.40;;
61696;SDS011;47610;52.252;20.922;2023-04-24T09:31:59;13.30;;;5.00;;
61696;SDS011;47610;52.252;20.922;2023-04-24T09:37:28;12.40;;;4.50;;
61696;SDS011;47610;52.252;20.922;2023-04-24T09:42:31;9.20;;;4.30;;
61696;SDS011;47610;52.252;20.922;2023-04-24T09:47:36;16.40;;;5.70;;
61696;SDS011;47610;52.252;20.922;2023-04-24T09:52:44;14.80;;;5.50;;
61696;SDS011;47610;52.252;20.922;2023-04-24T09:57:49;9.40;;;5.00;;
61696;SDS011;47610;52.252;20.922;2023-04-24T10:02:57;9.50;;;4.40;;
61696;SDS011;47610;52.252;20.922;2023-04-24T10:08:03;14.90;;;4.40;;
61696;SDS011;47610;52.252;20.922;2023-04-24T10:13:08;10.20;;;4.30;;
61696;SDS011;47610;52.252;20.922;2023-04-24T10:18:12;10.70;;;4.70;;
61696;SDS011;47610;52.252;20.922;2023-04-24T10:23:17;7.30;;;4.30;;
61696;SDS011;47610;52.252;20.922;2023-04-24T10:28:22;9.80;;;4.80;;
61696;SDS011;47610;52.252;20.922;2023-04-24T10:38:28;9.30;;;4.40;;
61696;SDS011;47610;52.252;20.922;2023-04-24T10:43:32;15.20;;;5.90;;
61696;SDS011;47610;52.252;20.922;2023-04-24T10:48:36;11.70;;;5.60;;
61696;SDS011;47610;52.252;20.922;2023-04-24T10:53:45;8.60;;;5.30;;
61696;SDS011;47610;52.252;20.922;2023-04-24T10:58:51;11.30;;;5.80;;
61696;SDS011;47610;52.252;20.922;2023-04-24T11:03:57;10.90;;;5.20;;
61696;SDS011;47610;52.252;20.922;2023-04-24T11:09:05;9.10;;;4.20;;
61696;SDS011;47610;52.252;20.922;2023-04-24T11:14:09;10.00;;;4.90;;
61696;SDS011;47610;52.252;20.922;2023-04-24T11:19:20;8.40;;;5.40;;
61696;SDS011;47610;52.252;20.922;2023-04-24T11:24:26;10.90;;;5.30;;
61696;SDS011;47610;52.252;20.922;2023-04-24T11:29:40;8.80;;;5.60;;
61696;SDS011;47610;52.252;20.922;2023-04-24T11:34:47;5.90;;;4.50;;
61696;SDS011;47610;52.252;20.922;2023-04-24T11:39:53;9.30;;;5.30;;
61696;SDS011;47610;52.252;20.922;2023-04-24T11:44:57;7.20;;;4.80;;
61696;SDS011;47610;52.252;20.922;2023-04-24T11:50:00;8.80;;;5.10;;
61696;SDS011;47610;52.252;20.922;2023-04-24T11:55:07;8.30;;;4.90;;
61696;SDS011;47610;52.252;20.922;2023-04-24T12:00:24;7.40;;;4.70;;
61696;SDS011;47610;52.252;20.922;2023-04-24T12:05:29;7.10;;;4.30;;
61696;SDS011;47610;52.252;20.922;2023-04-24T12:10:34;6.90;;;4.30;;
61696;SDS011;47610;52.252;20.922;2023-04-24T12:15:39;7.20;;;4.10;;
61696;SDS011;47610;52.252;20.922;2023-04-24T12:20:42;6.40;;;3.90;;
61696;SDS011;47610;52.252;20.922;2023-04-24T12:25:46;7.00;;;5.10;;
61696;SDS011;47610;52.252;20.922;2023-04-24T12:30:52;7.90;;;4.50;;
61696;SDS011;47610;52.252;20.922;2023-04-24T12:41:05;6.00;;;3.80;;
61696;SDS011;47610;52.252;20.922;2023-04-24T12:46:10;7.40;;;3.90;;
61696;SDS011;47610;52.252;20.922;2023-04-24T12:51:13;24.60;;;4.80;;
61696;SDS011;47610;52.252;20.922;2023-04-24T12:56:18;25.30;;;3.60;;
61696;SDS011;47610;52.252;20.922;2023-04-24T13:01:22;16.70;;;3.80;;
61696;SDS011;47610;52.252;20.922;2023-04-24T13:06:25;10.60;;;3.00;;
61696;SDS011;47610;52.252;20.922;2023-04-24T13:11:28;16.10;;;3.30;;
61696;SDS011;47610;52.252;20.922;2023-04-24T13:16:32;19.80;;;2.90;;
61696;SDS011;47610;52.252;20.922;2023-04-24T13:21:36;18.30;;;3.00;;
61696;SDS011;47610;52.252;20.922;2023-04-24T13:26:41;14.10;;;3.10;;
61696;SDS011;47610;52.252;20.922;2023-04-24T13:31:45;10.40;;;3.10;;
61696;SDS011;47610;52.252;20.922;2023-04-24T13:36:48;6.80;;;3.30;;
61696;SDS011;47610;52.252;20.922;2023-04-24T13:41:53;7.60;;;3.10;;
61696;SDS011;47610;52.252;20.922;2023-04-24T13:46:57;5.80;;;3.30;;
61696;SDS011;47610;52.252;20.922;2023-04-24T13:52:01;7.50;;;3.50;;
61696;SDS011;47610;52.252;20.922;2023-04-24T13:57:05;5.40;;;3.30;;
61696;SDS011;47610;52.252;20.922;2023-04-24T14:02:08;7.00;;;3.30;;
61696;SDS011;47610;52.252;20.922;2023-04-24T14:07:11;6.50;;;3.60;;
61696;SDS011;47610;52.252;20.922;2023-04-24T14:12:15;4.60;;;3.00;;
61696;SDS011;47610;52.252;20.922;2023-04-24T14:17:18;5.50;;;3.00;;
61696;SDS011;47610;52.252;20.922;2023-04-24T14:22:21;5.60;;;3.00;;
61696;SDS011;47610;52.252;20.922;2023-04-24T14:27:25;7.60;;;4.50;;
61696;SDS011;47610;52.252;20.922;2023-04-24T14:32:29;4.90;;;3.30;;
61696;SDS011;47610;52.252;20.922;2023-04-24T14:42:36;8.30;;;3.20;;
61696;SDS011;47610;52.252;20.922;2023-04-24T14:47:41;10.60;;;3.50;;
61696;SDS011;47610;52.252;20.922;2023-04-24T14:52:45;6.50;;;2.90;;
61696;SDS011;47610;52.252;20.922;2023-04-24T14:57:48;5.20;;;3.00;;
61696;SDS011;47610;52.252;20.922;2023-04-24T15:02:52;5.30;;;3.20;;
61696;SDS011;47610;52.252;20.922;2023-04-24T15:07:55;3.40;;;2.80;;
61696;SDS011;47610;52.252;20.922;2023-04-24T15:12:58;4.20;;;2.80;;
61696;SDS011;47610;52.252;20.922;2023-04-24T15:18:01;3.30;;;2.50;;
61696;SDS011;47610;52.252;20.922;2023-04-24T15:23:06;10.60;;;2.70;;
61696;SDS011;47610;52.252;20.922;2023-04-24T15:28:11;6.10;;;2.80;;
61696;SDS011;47610;52.252;20.922;2023-04-24T15:33:14;5.60;;;3.20;;
61696;SDS011;47610;52.252;20.922;2023-04-24T15:38:17;4.00;;;2.80;;
61696;SDS011;47610;52.252;20.922;2023-04-24T15:43:21;5.50;;;3.50;;
61696;SDS011;47610;52.252;20.922;2023-04-24T15:48:26;7.30;;;4.30;;
61696;SDS011;47610;52.252;20.922;2023-04-24T15:53:30;8.20;;;3.90;;
61696;SDS011;47610;52.252;20.922;2023-04-24T15:58:34;6.20;;;3.50;;
61696;SDS011;47610;52.252;20.922;2023-04-24T16:03:38;6.60;;;3.50;;
61696;SDS011;47610;52.252;20.922;2023-04-24T16:08:41;11.00;;;6.90;;
61696;SDS011;47610;52.252;20.922;2023-04-24T16:13:44;8.80;;;3.30;;
61696;SDS011;47610;52.252;20.922;2023-04-24T16:18:47;9.30;;;3.80;;
61696;SDS011;47610;52.252;20.922;2023-04-24T16:23:51;7.40;;;3.50;;
61696;SDS011;47610;52.252;20.922;2023-04-24T16:28:54;4.60;;;2.90;;
61696;SDS011;47610;52.252;20.922;2023-04-24T16:33:57;13.50;;;7.10;;
61696;SDS011;47610;52.252;20.922;2023-04-24T16:39:00;8.40;;;3.90;;
61696;SDS011;47610;52.252;20.922;2023-04-24T16:44:04;6.40;;;4.10;;
61696;SDS011;47610;52.252;20.922;2023-04-24T16:49:07;10.70;;;3.70;;
61696;SDS011;47610;52.252;20.922;2023-04-24T16:54:10;10.60;;;3.80;;
61696;SDS011;47610;52.252;20.922;2023-04-24T16:59:14;7.80;;;4.50;;
61696;SDS011;47610;52.252;20.922;2023-04-24T17:09:19;5.70;;;3.90;;
61696;SDS011;47610;52.252;20.922;2023-04-24T17:14:23;7.60;;;3.70;;
61696;SDS011;47610;52.252;20.922;2023-04-24T17:19:27;4.60;;;3.40;;
61696;SDS011;47610;52.252;20.922;2023-04-24T17:24:30;7.20;;;3.60;;
61696;SDS011;47610;52.252;20.922;2023-04-24T17:29:33;8.10;;;3.80;;
61696;SDS011;47610;52.252;20.922;2023-04-24T17:34:37;6.90;;;4.10;;
61696;SDS011;47610;52.252;20.922;2023-04-24T17:39:40;11.30;;;4.20;;
61696;SDS011;47610;52.252;20.922;2023-04-24T17:44:43;7.00;;;3.80;;
61696;SDS011;47610;52.252;20.922;2023-04-24T17:49:47;13.20;;;4.30;;
61696;SDS011;47610;52.252;20.922;2023-04-24T17:54:50;10.50;;;4.30;;
61696;SDS011;47610;52.252;20.922;2023-04-24T17:59:54;8.20;;;4.60;;
61696;SDS011;47610;52.252;20.922;2023-04-24T18:04:57;9.10;;;4.10;;
61696;SDS011;47610;52.252;20.922;2023-04-24T18:10:00;11.30;;;5.20;;
61696;SDS011;47610;52.252;20.922;2023-04-24T18:15:05;8.50;;;4.60;;
61696;SDS011;47610;52.252;20.922;2023-04-24T18:20:11;6.60;;;4.30;;
61696;SDS011;47610;52.252;20.922;2023-04-24T18:25:15;7.70;;;4.80;;
61696;SDS011;47610;52.252;20.922;2023-04-24T18:30:18;6.70;;;3.80;;
61696;SDS011;47610;52.252;20.922;2023-04-24T18:35:22;7.70;;;4.60;;
61696;SDS011;47610;52.252;20.922;2023-04-24T18:40:26;7.00;;;4.70;;
61696;SDS011;47610;52.252;20.922;2023-04-24T18:45:29;9.60;;;4.70;;
61696;SDS011;47610;52.252;20.922;2023-04-24T18:50:32;6.90;;;4.80;;
61696;SDS011;47610;52.252;20.922;2023-04-24T18:55:35;10.90;;;6.10;;
61696;SDS011;47610;52.252;20.922;2023-04-24T19:00:38;8.40;;;5.20;;
61696;SDS011;47610;52.252;20.922;2023-04-24T19:05:42;9.60;;;4.60;;
61696;SDS011;47610;52.252;20.922;2023-04-24T19:10:45;8.20;;;4.80;;
61696;SDS011;47610;52.252;20.922;2023-04-24T19:15:48;10.10;;;4.20;;
61696;SDS011;47610;52.252;20.922;2023-04-24T19:20:52;10.00;;;5.10;;
61696;SDS011;47610;52.252;20.922;2023-04-24T19:25:55;13.80;;;10.10;;
61696;SDS011;47610;52.252;20.922;2023-04-24T19:30:58;7.50;;;4.70;;
61696;SDS011;47610;52.252;20.922;2023-04-24T19:36:01;16.40;;;4.70;;
61696;SDS011;47610;52.252;20.922;2023-04-24T19:41:05;12.30;;;4.90;;
61696;SDS011;47610;52.252;20.922;2023-04-24T19:46:08;7.10;;;4.70;;
61696;SDS011;47610;52.252;20.922;2023-04-24T19:51:11;7.50;;;5.40;;
61696;SDS011;47610;52.252;20.922;2023-04-24T19:56:15;9.90;;;5.80;;
61696;SDS011;47610;52.252;20.922;2023-04-24T20:01:18;17.60;;;10.70;;
61696;SDS011;47610;52.252;20.922;2023-04-24T20:06:21;10.80;;;6.50;;
61696;SDS011;47610;52.252;20.922;2023-04-24T20:11:24;10.40;;;5.90;;
61696;SDS011;47610;52.252;20.922;2023-04-24T20:16:28;9.20;;;6.10;;
61696;SDS011;47610;52.252;20.922;2023-04-24T20:21:31;8.00;;;6.10;;
61696;SDS011;47610;52.252;20.922;2023-04-24T20:26:35;11.40;;;6.80;;
61696;SDS011;47610;52.252;20.922;2023-04-24T20:31:38;8.30;;;6.20;;
61696;SDS011;47610;52.252;20.922;2023-04-24T20:36:41;10.90;;;6.50;;
61696;SDS011;47610;52.252;20.922;2023-04-24T20:41:44;17.50;;;7.60;;
61696;SDS011;47610;52.252;20.922;2023-04-24T20:46:48;11.20;;;7.30;;
61696;SDS011;47610;52.252;20.922;2023-04-24T20:51:51;10.70;;;7.20;;
61696;SDS011;47610;52.252;20.922;2023-04-24T20:56:54;10.40;;;7.30;;
61696;SDS011;47610;52.252;20.922;2023-04-24T21:01:58;10.70;;;7.30;;
61696;SDS011;47610;52.252;20.922;2023-04-24T21:12:04;11.90;;;7.00;;
61696;SDS011;47610;52.252;20.922;2023-04-24T21:17:08;11.10;;;7.70;;
61696;SDS011;47610;52.252;20.922;2023-04-24T21:22:11;12.00;;;7.10;;
61696;SDS011;47610;52.252;20.922;2023-04-24T21:27:14;9.00;;;7.10;;
61696;SDS011;47610;52.252;20.922;2023-04-24T21:32:18;11.50;;;6.90;;
61696;SDS011;47610;52.252;20.922;2023-04-24T21:37:21;21.80;;;13.40;;
61696;SDS011;47610;52.252;20.922;2023-04-24T21:42:24;11.40;;;7.80;;
61696;SDS011;47610;52.252;20.922;2023-04-24T21:47:28;8.50;;;6.80;;
61696;SDS011;47610;52.252;20.922;2023-04-24T21:52:31;9.70;;;6.80;;
61696;SDS011;47610;52.252;20.922;2023-04-24T21:57:34;12.60;;;7.10;;
61696;SDS011;47610;52.252;20.922;2023-04-24T22:02:37;8.70;;;6.40;;
61696;SDS011;47610;52.252;20.922;2023-04-24T22:07:41;9.20;;;6.80;;
61696;SDS011;47610;52.252;20.922;2023-04-24T22:12:45;9.60;;;6.80;;
61696;SDS011;47610;52.252;20.922;2023-04-24T22:17:48;10.60;;;6.70;;
61696;SDS011;47610;52.252;20.922;2023-04-24T22:22:52;9.80;;;7.00;;
61696;SDS011;47610;52.252;20.922;2023-04-24T22:27:55;10.90;;;7.40;;
61696;SDS011;47610;52.252;20.922;2023-04-24T22:32:58;10.00;;;7.00;;
61696;SDS011;47610;52.252;20.922;2023-04-24T22:38:01;8.50;;;6.90;;
61696;SDS011;47610;52.252;20.922;2023-04-24T22:43:05;8.80;;;7.40;;
61696;SDS011;47610;52.252;20.922;2023-04-24T22:48:08;12.30;;;7.20;;
61696;SDS011;47610;52.252;20.922;2023-04-24T22:53:11;12.20;;;8.50;;
61696;SDS011;47610;52.252;20.922;2023-04-24T22:58:14;8.90;;;7.80;;
61696;SDS011;47610;52.252;20.922;2023-04-24T23:03:18;12.50;;;8.80;;
61696;SDS011;47610;52.252;20.922;2023-04-24T23:08:22;10.30;;;7.90;;
61696;SDS011;47610;52.252;20.922;2023-04-24T23:13:25;10.30;;;7.90;;
61696;SDS011;47610;52.252;20.922;2023-04-24T23:18:28;9.90;;;8.10;;
61696;SDS011;47610;52.252;20.922;2023-04-24T23:23:32;9.50;;;8.10;;
61696;SDS011;47610;52.252;20.922;2023-04-24T23:28:35;10.40;;;8.50;;
61696;SDS011;47610;52.252;20.922;2023-04-24T23:33:38;10.70;;;7.90;;
61696;SDS011;47610;52.252;20.922;2023-04-24T23:38:41;10.20;;;8.10;;
61696;SDS011;47610;52.252;20.922;2023-04-24T23:43:45;10.30;;;8.60;;
61696;SDS011;47610;52.252;20.922;2023-04-24T23:48:48;11.70;;;8.90;;
61696;SDS011;47610;52.252;20.922;2023-04-24T23:53:51;14.60;;;8.40;;
61696;SDS011;47610;52.252;20.922;2023-04-24T23:58:54;9.40;;;8.20;;
